createdAt,value
2018-12-17T00:00:26.046Z,99.99
2018-12-17T00:01:26.038Z,99.99
2018-12-17T00:02:26.030Z,99.99
2018-12-17T00:03:26.025Z,99.99
2018-12-17T00:04:26.054Z,99.99
2018-12-17T00:05:26.016Z,99.99
2018-12-17T00:06:26.006Z,99.99
2018-12-17T00:07:26.007Z,99.99
2018-12-17T00:08:31.877Z,97.72
2018-12-17T00:09:26.009Z,99.99
2018-12-17T00:10:25.982Z,99.99
2018-12-17T00:11:25.966Z,99.99
2018-12-17T00:12:25.964Z,99.99
2018-12-17T00:13:25.957Z,99.99
2018-12-17T00:14:25.981Z,99.80
2018-12-17T00:15:25.944Z,94.23
2018-12-17T00:16:25.941Z,97.82
2018-12-17T00:17:25.932Z,98.20
2018-12-17T00:18:25.924Z,97.63
2018-12-17T00:19:25.946Z,98.86
2018-12-17T00:20:25.916Z,98.86
2018-12-17T00:21:25.904Z,98.10
2018-12-17T00:22:25.898Z,98.58
2018-12-17T00:23:25.892Z,98.58
2018-12-17T00:24:25.912Z,99.05
2018-12-17T00:25:25.875Z,96.78
2018-12-17T00:26:25.871Z,96.78
2018-12-17T00:27:25.863Z,98.29
2018-12-17T00:28:25.859Z,98.29
2018-12-17T00:29:25.880Z,98.24
2018-12-17T00:30:25.841Z,97.58
2018-12-17T00:31:25.835Z,98.14
2018-12-17T00:32:25.831Z,97.44
2018-12-17T00:33:25.823Z,97.01
2018-12-17T00:34:25.843Z,97.20
2018-12-17T00:35:25.807Z,96.31
2018-12-17T00:36:25.802Z,94.42
2018-12-17T00:37:25.794Z,94.32
2018-12-17T00:38:25.790Z,96.21
2018-12-17T00:39:25.811Z,95.07
2018-12-17T00:40:25.777Z,95.55
2018-12-17T00:41:25.767Z,95.74
2018-12-17T00:42:25.763Z,95.93
2018-12-17T00:43:25.754Z,94.23
2018-12-17T00:44:25.781Z,91.01
2018-12-17T00:45:25.738Z,94.13
2018-12-17T00:46:25.738Z,91.20
2018-12-17T00:47:25.730Z,91.29
2018-12-17T00:48:25.725Z,92.52
2018-12-17T00:49:25.743Z,92.05
2018-12-17T00:50:25.705Z,93.94
2018-12-17T00:51:25.701Z,93.85
2018-12-17T00:52:25.698Z,91.20
2018-12-17T00:53:25.684Z,88.64
2018-12-17T00:54:25.710Z,92.52
2018-12-17T00:55:25.672Z,92.99
2018-12-17T00:56:25.665Z,93.18
2018-12-17T00:57:25.657Z,91.39
2018-12-17T00:58:25.654Z,93.18
2018-12-17T00:59:25.669Z,93.18
2018-12-17T01:00:25.640Z,93.18
2018-12-17T01:01:25.632Z,92.61
2018-12-17T01:02:25.624Z,92.05
2018-12-17T01:03:25.619Z,91.77
2018-12-17T01:04:25.640Z,91.58
2018-12-17T01:05:25.605Z,92.90
2018-12-17T01:06:25.599Z,94.04
2018-12-17T01:07:25.596Z,90.34
2018-12-17T01:08:25.587Z,93.28
2018-12-17T01:09:25.607Z,93.56
2018-12-17T01:10:25.571Z,94.04
2018-12-17T01:11:25.570Z,94.04
2018-12-17T01:12:25.562Z,94.13
2018-12-17T01:13:25.550Z,93.75
2018-12-17T01:14:25.593Z,94.13
2018-12-17T01:15:25.539Z,93.85
2018-12-17T01:16:26.549Z,94.32
2018-12-17T01:17:25.525Z,93.66
2018-12-17T01:18:25.518Z,94.23
2018-12-17T01:19:25.540Z,93.37
2018-12-17T01:20:25.506Z,94.51
2018-12-17T01:21:25.499Z,94.42
2018-12-17T01:22:25.493Z,93.09
2018-12-17T01:23:25.487Z,94.98
2018-12-17T01:24:25.510Z,94.60
2018-12-17T01:25:25.473Z,93.89
2018-12-17T01:26:25.466Z,93.56
2018-12-17T01:27:25.457Z,94.27
2018-12-17T01:28:25.451Z,95.31
2018-12-17T01:29:25.474Z,94.84
2018-12-17T01:30:25.429Z,93.51
2018-12-17T01:31:25.434Z,90.11
2018-12-17T01:32:25.425Z,91.05
2018-12-17T01:33:25.419Z,92.94
2018-12-17T01:34:25.441Z,92.47
2018-12-17T01:35:25.406Z,92.76
2018-12-17T01:36:25.397Z,92.47
2018-12-17T01:37:25.389Z,92.10
2018-12-17T01:38:25.385Z,91.72
2018-12-17T01:39:25.405Z,91.62
2018-12-17T01:40:25.372Z,91.43
2018-12-17T01:41:25.367Z,90.58
2018-12-17T01:42:25.355Z,89.83
2018-12-17T01:43:25.347Z,90.58
2018-12-17T01:44:25.374Z,89.92
2018-12-17T01:45:25.337Z,90.68
2018-12-17T01:46:25.324Z,90.01
2018-12-17T01:47:25.319Z,90.30
2018-12-17T01:48:25.312Z,88.79
2018-12-17T01:49:25.470Z,88.31
2018-12-17T01:50:25.303Z,87.84
2018-12-17T01:51:25.294Z,87.84
2018-12-17T01:52:25.287Z,88.69
2018-12-17T01:53:25.282Z,88.60
2018-12-17T01:54:25.302Z,88.60
2018-12-17T01:55:25.262Z,87.89
2018-12-17T01:56:25.258Z,86.52
2018-12-17T01:57:25.245Z,82.12
2018-12-17T01:58:29.186Z,74.09
2018-12-17T01:59:25.281Z,73.33
2018-12-17T02:00:25.232Z,69.46
2018-12-17T02:01:25.221Z,59.25
2018-12-17T02:02:25.215Z,55.47
2018-12-17T02:03:25.202Z,52.17
2018-12-17T02:04:25.227Z,44.51
2018-12-17T02:05:25.193Z,35.35
2018-12-17T02:06:25.185Z,28.73
2018-12-17T02:07:25.181Z,26.27
2018-12-17T02:08:25.170Z,25.42
2018-12-17T02:09:25.189Z,25.89
2018-12-17T02:10:25.156Z,27.12
2018-12-17T02:11:25.150Z,28.82
2018-12-17T02:12:25.141Z,30.15
2018-12-17T02:13:25.133Z,31.28
2018-12-17T02:14:25.155Z,31.18
2018-12-17T02:15:25.130Z,31.18
2018-12-17T02:16:25.111Z,31.75
2018-12-17T02:17:25.106Z,31.56
2018-12-17T02:18:25.093Z,31.66
2018-12-17T02:19:25.118Z,31.47
2018-12-17T02:20:25.085Z,32.04
2018-12-17T02:21:25.080Z,31.28
2018-12-17T02:22:25.065Z,31.28
2018-12-17T02:23:25.065Z,31.37
2018-12-17T02:24:25.079Z,30.99
2018-12-17T02:25:25.044Z,29.20
2018-12-17T02:26:25.039Z,29.58
2018-12-17T02:27:25.031Z,29.96
2018-12-17T02:28:25.019Z,30.71
2018-12-17T02:29:25.042Z,31.09
2018-12-17T02:30:25.012Z,31.37
2018-12-17T02:31:25.003Z,31.66
2018-12-17T02:32:24.995Z,30.71
2018-12-17T02:33:24.986Z,27.40
2018-12-17T02:34:25.012Z,22.20
2018-12-17T02:35:25.218Z,17.58
2018-12-17T02:36:24.969Z,17.96
2018-12-17T02:37:24.965Z,24.57
2018-12-17T02:38:24.974Z,30.52
2018-12-17T02:39:24.944Z,30.05
2018-12-17T02:40:24.934Z,28.06
2018-12-17T02:41:24.925Z,22.77
2018-12-17T02:42:24.924Z,18.90
2018-12-17T02:43:24.954Z,18.33
2018-12-17T02:44:24.908Z,20.51
2018-12-17T02:45:24.902Z,24.66
2018-12-17T02:46:24.893Z,27.69
2018-12-17T02:47:24.884Z,29.96
2018-12-17T02:48:24.903Z,30.80
2018-12-17T02:49:24.870Z,30.90
2018-12-17T02:50:24.857Z,30.80
2018-12-17T02:51:24.862Z,29.77
2018-12-17T02:52:24.846Z,29.39
2018-12-17T02:53:24.867Z,29.39
2018-12-17T02:54:24.838Z,28.44
2018-12-17T02:55:24.827Z,27.97
2018-12-17T02:56:24.819Z,27.22
2018-12-17T02:57:24.815Z,27.03
2018-12-17T02:58:24.841Z,27.22
2018-12-17T02:59:24.798Z,26.08
2018-12-17T03:00:24.791Z,21.17
2018-12-17T03:01:24.782Z,18.24
2018-12-17T03:02:24.785Z,15.88
2018-12-17T03:03:24.795Z,16.07
2018-12-17T03:04:24.768Z,19.38
2018-12-17T03:05:24.755Z,23.35
2018-12-17T03:06:24.752Z,26.38
2018-12-17T03:07:24.745Z,28.82
2018-12-17T03:08:24.829Z,30.15
2018-12-17T03:09:24.726Z,30.62
2018-12-17T03:10:24.719Z,31.37
2018-12-17T03:11:24.708Z,32.51
2018-12-17T03:12:24.709Z,31.56
2018-12-17T03:13:24.721Z,31.28
2018-12-17T03:14:24.690Z,31.28
2018-12-17T03:15:24.684Z,31.28
2018-12-17T03:16:24.677Z,31.28
2018-12-17T03:17:24.669Z,31.09
2018-12-17T03:18:24.694Z,30.33
2018-12-17T03:19:24.654Z,29.39
2018-12-17T03:20:24.648Z,28.73
2018-12-17T03:21:24.641Z,29.30
2018-12-17T03:22:24.634Z,29.68
2018-12-17T03:23:24.654Z,30.05
2018-12-17T03:24:24.620Z,30.24
2018-12-17T03:25:24.619Z,29.96
2018-12-17T03:26:24.606Z,30.33
2018-12-17T03:27:24.605Z,30.54
2018-12-17T03:28:24.622Z,30.44
2018-12-17T03:29:24.589Z,30.16
2018-12-17T03:30:24.574Z,29.03
2018-12-17T03:31:24.589Z,28.65
2018-12-17T03:32:24.568Z,28.27
2018-12-17T03:33:24.588Z,30.16
2018-12-17T03:34:24.546Z,31.20
2018-12-17T03:35:24.544Z,30.24
2018-12-17T03:36:24.533Z,28.54
2018-12-17T03:37:24.527Z,22.13
2018-12-17T03:38:24.550Z,18.06
2018-12-17T03:39:24.517Z,16.07
2018-12-17T03:40:24.511Z,14.65
2018-12-17T03:41:24.504Z,12.66
2018-12-17T03:42:24.494Z,12.29
2018-12-17T03:43:24.515Z,13.52
2018-12-17T03:44:24.479Z,15.12
2018-12-17T03:45:24.475Z,16.36
2018-12-17T03:46:24.467Z,15.12
2018-12-17T03:47:24.462Z,14.94
2018-12-17T03:48:24.480Z,14.47
2018-12-17T03:49:24.447Z,15.22
2018-12-17T03:50:24.441Z,13.90
2018-12-17T03:51:24.433Z,11.82
2018-12-17T03:52:24.427Z,12.29
2018-12-17T03:53:24.446Z,14.47
2018-12-17T03:54:24.415Z,16.36
2018-12-17T03:55:24.403Z,17.96
2018-12-17T03:56:24.399Z,18.53
2018-12-17T03:57:24.391Z,21.18
2018-12-17T03:58:24.410Z,24.39
2018-12-17T03:59:24.416Z,26.09
2018-12-17T04:00:24.373Z,25.52
2018-12-17T04:01:24.357Z,24.87
2018-12-17T04:02:24.359Z,26.09
2018-12-17T04:03:24.379Z,26.38
2018-12-17T04:04:24.349Z,28.08
2018-12-17T04:05:24.334Z,30.16
2018-12-17T04:06:24.329Z,31.77
2018-12-17T04:07:24.318Z,33.37
2018-12-17T04:08:24.340Z,30.91
2018-12-17T04:09:24.304Z,29.03
2018-12-17T04:10:24.302Z,27.23
2018-12-17T04:11:24.301Z,26.47
2018-12-17T04:12:24.289Z,30.26
2018-12-17T04:13:24.318Z,32.05
2018-12-17T04:14:24.272Z,34.89
2018-12-17T04:15:24.273Z,39.81
2018-12-17T04:16:24.260Z,45.01
2018-12-17T04:17:24.288Z,46.04
2018-12-17T04:18:24.244Z,39.71
2018-12-17T04:19:24.240Z,36.49
2018-12-17T04:20:24.232Z,36.71
2018-12-17T04:21:24.228Z,37.06
2018-12-17T04:22:24.260Z,43.90
2018-12-17T04:23:24.241Z,48.53
2018-12-17T04:24:24.207Z,52.79
2018-12-17T04:25:24.198Z,50.33
2018-12-17T04:26:24.190Z,56.82
2018-12-17T04:27:24.186Z,57.49
2018-12-17T04:28:24.208Z,54.46
2018-12-17T04:29:24.170Z,43.96
2018-12-17T04:30:24.168Z,40.66
2018-12-17T04:31:24.162Z,38.76
2018-12-17T04:32:24.152Z,41.22
2018-12-17T04:33:24.174Z,41.41
2018-12-17T04:34:24.139Z,37.73
2018-12-17T04:35:24.131Z,31.39
2018-12-17T04:36:24.129Z,29.41
2018-12-17T04:37:24.145Z,31.10
2018-12-17T04:38:24.111Z,33.85
2018-12-17T04:39:24.110Z,35.46
2018-12-17T04:40:24.102Z,38.01
2018-12-17T04:41:24.093Z,38.39
2018-12-17T04:42:24.114Z,39.43
2018-12-17T04:43:24.077Z,38.95
2018-12-17T04:44:24.073Z,35.83
2018-12-17T04:45:24.068Z,28.74
2018-12-17T04:46:24.059Z,31.01
2018-12-17T04:47:24.083Z,36.38
2018-12-17T04:48:24.045Z,40.92
2018-12-17T04:49:24.042Z,40.83
2018-12-17T04:50:24.033Z,40.16
2018-12-17T04:51:24.028Z,36.95
2018-12-17T04:52:24.045Z,29.39
2018-12-17T04:53:24.016Z,30.24
2018-12-17T04:54:24.001Z,30.05
2018-12-17T04:55:24.009Z,30.43
2018-12-17T04:56:23.992Z,29.11
2018-12-17T04:57:24.021Z,28.06
2018-12-17T04:58:23.985Z,25.13
2018-12-17T04:59:23.968Z,20.41
2018-12-17T05:00:23.975Z,18.71
2018-12-17T05:01:23.988Z,18.05
2018-12-17T05:02:23.956Z,16.44
2018-12-17T05:03:23.943Z,14.17
2018-12-17T05:04:23.936Z,13.51
2018-12-17T05:05:23.926Z,13.13
2018-12-17T05:06:23.947Z,12.19
2018-12-17T05:07:23.939Z,11.72
2018-12-17T05:08:23.910Z,10.86
2018-12-17T05:09:23.901Z,10.58
2018-12-17T05:10:23.907Z,10.39
2018-12-17T05:11:23.883Z,10.39
2018-12-17T05:12:23.905Z,9.35
2018-12-17T05:13:23.866Z,8.50
2018-12-17T05:14:23.865Z,8.22
2018-12-17T05:15:23.851Z,11.24
2018-12-17T05:16:23.846Z,10.77
2018-12-17T05:17:23.864Z,9.83
2018-12-17T05:18:23.830Z,7.84
2018-12-17T05:19:23.838Z,7.46
2018-12-17T05:20:23.817Z,7.56
2018-12-17T05:21:23.810Z,10.30
2018-12-17T05:22:23.832Z,12.85
2018-12-17T05:23:23.795Z,16.07
2018-12-17T05:24:23.785Z,20.99
2018-12-17T05:25:23.777Z,28.08
2018-12-17T05:26:23.802Z,33.56
2018-12-17T05:27:23.764Z,36.49
2018-12-17T05:28:23.755Z,40.09
2018-12-17T05:29:23.749Z,50.11
2018-12-17T05:30:23.741Z,43.96
2018-12-17T05:31:23.765Z,43.12
2018-12-17T05:32:23.754Z,47.85
2018-12-17T05:33:23.721Z,48.69
2018-12-17T05:34:23.713Z,46.71
2018-12-17T05:35:23.727Z,44.72
2018-12-17T05:36:23.764Z,51.25
2018-12-17T05:37:23.720Z,43.87
2018-12-17T05:38:23.686Z,49.73
2018-12-17T05:39:23.680Z,54.27
2018-12-17T05:40:23.676Z,54.08
2018-12-17T05:41:23.664Z,50.87
2018-12-17T05:42:23.689Z,54.18
2018-12-17T05:43:23.648Z,53.14
2018-12-17T05:44:23.650Z,48.22
2018-12-17T05:45:23.632Z,47.28
2018-12-17T05:46:23.657Z,45.01
2018-12-17T05:47:23.622Z,44.04
2018-12-17T05:48:23.646Z,42.93
2018-12-17T05:49:23.614Z,41.77
2018-12-17T05:50:23.612Z,38.18
2018-12-17T05:51:23.594Z,34.21
2018-12-17T05:52:23.617Z,30.99
2018-12-17T05:53:23.583Z,28.54
2018-12-17T05:54:23.570Z,29.96
2018-12-17T05:55:23.563Z,26.75
2018-12-17T05:56:23.586Z,26.56
2018-12-17T05:57:23.549Z,25.61
2018-12-17T05:58:23.541Z,24.01
2018-12-17T05:59:28.566Z,21.26
2018-12-17T06:00:23.530Z,16.44
2018-12-17T06:01:23.550Z,12.85
2018-12-17T06:02:23.515Z,9.92
2018-12-17T06:03:23.506Z,10.49
2018-12-17T06:04:23.494Z,8.98
2018-12-17T06:05:23.489Z,10.11
2018-12-17T06:06:23.513Z,13.04
2018-12-17T06:07:23.476Z,19.67
2018-12-17T06:08:23.468Z,24.49
2018-12-17T06:09:23.459Z,27.42
2018-12-17T06:10:23.454Z,30.05
2018-12-17T06:11:23.470Z,30.71
2018-12-17T06:12:23.439Z,28.35
2018-12-17T06:13:23.432Z,25.23
2018-12-17T06:14:23.425Z,19.84
2018-12-17T06:15:23.417Z,14.18
2018-12-17T06:16:23.439Z,12.76
2018-12-17T06:17:23.399Z,13.04
2018-12-17T06:18:23.403Z,20.14
2018-12-17T06:19:23.388Z,20.32
2018-12-17T06:20:23.383Z,20.32
2018-12-17T06:21:23.408Z,21.75
2018-12-17T06:22:23.365Z,27.61
2018-12-17T06:23:23.358Z,36.52
2018-12-17T06:24:23.373Z,45.22
2018-12-17T06:25:24.108Z,56.10
2018-12-17T06:26:23.375Z,60.07
2018-12-17T06:27:23.396Z,66.79
2018-12-17T06:28:23.371Z,66.13
2018-12-17T06:29:23.396Z,69.44
2018-12-17T06:30:23.303Z,68.59
2018-12-17T06:31:23.329Z,69.06
2018-12-17T06:32:23.286Z,71.90
2018-12-17T06:33:23.284Z,69.53
2018-12-17T06:34:23.302Z,66.79
2018-12-17T06:35:23.274Z,71.33
2018-12-17T06:36:23.287Z,71.33
2018-12-17T06:37:23.260Z,72.18
2018-12-17T06:38:23.247Z,73.98
2018-12-17T06:39:23.242Z,68.02
2018-12-17T06:40:23.234Z,68.68
2018-12-17T06:41:23.261Z,65.75
2018-12-17T06:42:23.218Z,69.91
2018-12-17T06:43:23.215Z,71.99
2018-12-17T06:44:23.206Z,75.87
2018-12-17T06:45:23.198Z,80.41
2018-12-17T06:46:23.224Z,83.63
2018-12-17T06:47:23.188Z,83.91
2018-12-17T06:48:23.181Z,83.44
2018-12-17T06:49:23.174Z,83.76
2018-12-17T06:50:23.167Z,85.28
2018-12-17T06:51:23.189Z,86.13
2018-12-17T06:52:23.159Z,86.41
2018-12-17T06:53:23.163Z,86.04
2018-12-17T06:54:23.127Z,87.08
2018-12-17T06:55:23.160Z,90.58
2018-12-17T06:56:23.128Z,93.89
2018-12-17T06:57:23.125Z,94.27
2018-12-17T06:58:23.110Z,93.51
2018-12-17T06:59:23.128Z,91.72
2018-12-17T07:00:23.103Z,91.62
2018-12-17T07:01:23.118Z,92.29
2018-12-17T07:02:23.090Z,95.40
2018-12-17T07:03:23.079Z,94.84
2018-12-17T07:04:23.076Z,95.78
2018-12-17T07:05:23.068Z,95.78
2018-12-17T07:06:23.171Z,95.40
2018-12-17T07:07:23.057Z,96.64
2018-12-17T07:08:23.052Z,96.73
2018-12-17T07:09:23.072Z,94.84
2018-12-17T07:10:23.039Z,98.53
2018-12-17T07:11:23.036Z,99.99
2018-12-17T07:12:23.052Z,99.99
2018-12-17T07:13:23.020Z,99.38
2018-12-17T07:14:23.011Z,99.99
2018-12-17T07:15:23.007Z,99.99
2018-12-17T07:16:23.026Z,99.48
2018-12-17T07:17:22.995Z,99.99
2018-12-17T07:18:22.997Z,99.99
2018-12-17T07:19:22.985Z,98.34
2018-12-17T07:20:22.974Z,99.57
2018-12-17T07:21:23.000Z,98.63
2018-12-17T07:22:22.964Z,96.54
2018-12-17T07:23:22.958Z,99.99
2018-12-17T07:24:22.951Z,99.85
2018-12-17T07:25:22.951Z,99.48
2018-12-17T07:26:22.966Z,99.76
2018-12-17T07:27:22.938Z,99.01
2018-12-17T07:28:22.927Z,99.57
2018-12-17T07:29:22.953Z,98.53
2018-12-17T07:30:22.911Z,95.03
2018-12-17T07:31:22.910Z,99.99
2018-12-17T07:32:22.930Z,98.44
2018-12-17T07:33:22.900Z,99.99
2018-12-17T07:34:22.889Z,98.06
2018-12-17T07:35:22.889Z,99.99
2018-12-17T07:36:22.886Z,99.99
2018-12-17T07:37:22.902Z,99.99
2018-12-17T07:38:22.870Z,99.99
2018-12-17T07:39:22.865Z,99.99
2018-12-17T07:40:22.857Z,99.99
2018-12-17T07:41:22.848Z,99.99
2018-12-17T07:42:22.872Z,99.99
2018-12-17T07:43:22.840Z,99.99
2018-12-17T07:44:22.837Z,99.99
2018-12-17T07:45:22.825Z,99.99
2018-12-17T07:46:22.829Z,99.99
2018-12-17T07:47:22.847Z,99.99
2018-12-17T07:48:22.812Z,99.99
2018-12-17T07:49:22.804Z,99.99
2018-12-17T07:50:22.803Z,99.99
2018-12-17T07:51:22.797Z,99.99
2018-12-17T07:52:22.816Z,99.99
2018-12-17T07:53:22.803Z,99.99
2018-12-17T07:54:22.781Z,99.99
2018-12-17T07:55:22.772Z,99.99
2018-12-17T07:56:22.768Z,99.99
2018-12-17T07:57:22.800Z,99.99
2018-12-17T07:58:22.757Z,99.99
2018-12-17T07:59:22.763Z,99.99
2018-12-17T08:00:22.749Z,99.99
2018-12-17T08:01:22.744Z,99.99
2018-12-17T08:02:22.764Z,99.99
2018-12-17T08:03:22.733Z,99.99
2018-12-17T08:04:22.727Z,99.99
2018-12-17T08:05:22.724Z,99.99
2018-12-17T08:06:22.715Z,99.99
2018-12-17T08:07:22.736Z,99.99
2018-12-17T08:08:22.706Z,99.99
2018-12-17T08:09:22.806Z,99.99
2018-12-17T08:10:22.699Z,99.99
2018-12-17T08:11:22.690Z,99.99
2018-12-17T08:12:22.716Z,99.99
2018-12-17T08:13:22.682Z,99.99
2018-12-17T08:14:22.676Z,99.99
2018-12-17T08:15:22.722Z,99.99
2018-12-17T08:16:22.670Z,99.99
2018-12-17T08:17:22.694Z,99.99
2018-12-17T08:18:22.658Z,99.99
2018-12-17T08:19:22.656Z,99.99
2018-12-17T08:20:22.650Z,99.99
2018-12-17T08:21:22.642Z,99.99
2018-12-17T08:22:22.674Z,99.99
2018-12-17T08:23:22.639Z,99.99
2018-12-17T08:24:22.629Z,99.99
2018-12-17T08:25:22.625Z,99.99
2018-12-17T08:26:22.621Z,99.99
2018-12-17T08:27:22.641Z,99.99
2018-12-17T08:28:22.613Z,99.99
2018-12-17T08:29:23.538Z,99.99
2018-12-17T08:30:22.597Z,99.99
2018-12-17T08:31:22.598Z,99.99
2018-12-17T08:32:22.619Z,99.99
2018-12-17T08:33:22.584Z,99.99
2018-12-17T08:34:22.580Z,99.99
2018-12-17T08:35:22.577Z,99.99
2018-12-17T08:36:22.573Z,99.99
2018-12-17T08:37:22.601Z,99.99
2018-12-17T08:38:22.561Z,99.99
2018-12-17T08:39:22.553Z,99.99
2018-12-17T08:40:22.557Z,99.99
2018-12-17T08:41:22.573Z,99.99
2018-12-17T08:42:22.543Z,99.99
2018-12-17T08:43:22.535Z,99.99
2018-12-17T08:44:22.536Z,99.99
2018-12-17T08:45:22.523Z,99.99
2018-12-17T08:46:22.552Z,99.99
2018-12-17T08:47:22.516Z,99.99
2018-12-17T08:48:22.508Z,99.99
2018-12-17T08:49:22.505Z,99.99
2018-12-17T08:50:22.502Z,99.99
2018-12-17T08:51:22.529Z,99.99
2018-12-17T08:52:22.492Z,99.99
2018-12-17T08:53:22.487Z,99.99
2018-12-17T08:54:22.483Z,99.99
2018-12-17T08:55:22.502Z,99.99
2018-12-17T08:56:22.473Z,99.99
2018-12-17T08:57:22.494Z,99.99
2018-12-17T08:58:22.467Z,99.99
2018-12-17T08:59:22.459Z,99.99
2018-12-17T09:00:22.451Z,99.99
2018-12-17T09:01:22.451Z,99.99
2018-12-17T09:02:22.467Z,99.99
2018-12-17T09:03:22.437Z,99.99
2018-12-17T09:04:22.436Z,99.99
2018-12-17T09:05:22.426Z,99.99
2018-12-17T09:06:22.424Z,99.99
2018-12-17T09:07:22.449Z,99.99
2018-12-17T09:08:22.447Z,99.99
2018-12-17T09:09:22.493Z,99.99
2018-12-17T09:10:22.402Z,99.99
2018-12-17T09:11:22.397Z,99.99
2018-12-17T09:12:22.393Z,99.99
2018-12-17T09:13:22.421Z,99.99
2018-12-17T09:14:22.386Z,99.99
2018-12-17T09:15:22.379Z,99.99
2018-12-17T09:16:22.378Z,99.99
2018-12-17T09:17:22.371Z,99.99
2018-12-17T09:18:22.399Z,99.99
2018-12-17T09:19:22.368Z,99.99
2018-12-17T09:20:22.364Z,99.99
2018-12-17T09:21:22.357Z,99.99
2018-12-17T09:22:22.352Z,99.99
2018-12-17T09:23:22.382Z,99.99
2018-12-17T09:24:22.347Z,99.99
2018-12-17T09:25:22.343Z,99.99
2018-12-17T09:26:22.340Z,99.99
2018-12-17T09:27:22.340Z,99.99
2018-12-17T09:28:22.363Z,99.99
2018-12-17T09:29:22.327Z,99.99
2018-12-17T09:30:22.324Z,99.99
2018-12-17T09:31:22.320Z,99.99
2018-12-17T09:32:22.356Z,99.99
2018-12-17T09:33:22.350Z,99.99
2018-12-17T09:34:22.311Z,99.99
2018-12-17T09:35:22.317Z,99.99
2018-12-17T09:36:22.324Z,99.99
2018-12-17T09:37:22.303Z,99.99
2018-12-17T09:38:22.334Z,99.99
2018-12-17T09:39:22.299Z,99.99
2018-12-17T09:40:22.300Z,99.99
2018-12-17T09:41:22.291Z,99.99
2018-12-17T09:42:22.287Z,99.99
2018-12-17T09:43:22.316Z,99.99
2018-12-17T09:44:22.284Z,99.99
2018-12-17T09:45:22.278Z,99.99
2018-12-17T09:46:22.281Z,99.99
2018-12-17T09:47:22.276Z,99.99
2018-12-17T09:48:22.299Z,99.99
2018-12-17T09:49:22.271Z,99.99
2018-12-17T09:50:22.307Z,99.99
2018-12-17T09:51:22.265Z,99.99
2018-12-17T09:52:22.261Z,99.99
2018-12-17T09:53:22.289Z,99.99
2018-12-17T09:54:22.255Z,99.99
2018-12-17T09:55:22.255Z,99.99
2018-12-17T09:56:22.246Z,99.99
2018-12-17T09:57:22.251Z,99.99
2018-12-17T09:58:22.274Z,99.99
2018-12-17T09:59:22.246Z,99.99
2018-12-17T10:00:25.463Z,99.99
2018-12-17T10:01:22.262Z,99.99
2018-12-17T10:02:22.268Z,99.99
2018-12-17T10:03:22.287Z,99.99
2018-12-17T10:04:22.283Z,99.99
2018-12-17T10:05:22.263Z,99.99
2018-12-17T10:06:22.243Z,99.99
2018-12-17T10:07:22.236Z,99.99
2018-12-17T10:08:22.269Z,99.99
2018-12-17T10:09:22.248Z,99.99
2018-12-17T10:10:22.246Z,99.99
2018-12-17T10:11:22.258Z,99.99
2018-12-17T10:12:22.245Z,99.99
2018-12-17T10:13:22.276Z,99.99
2018-12-17T10:14:22.254Z,99.99
2018-12-17T10:15:22.252Z,99.99
2018-12-17T10:16:22.251Z,99.99
2018-12-17T10:17:22.256Z,99.99
2018-12-17T10:18:22.280Z,99.99
2018-12-17T10:19:22.261Z,99.99
2018-12-17T10:20:22.268Z,99.99
2018-12-17T10:21:22.263Z,99.99
2018-12-17T10:22:22.260Z,99.99
2018-12-17T10:23:22.290Z,99.99
2018-12-17T10:24:22.267Z,99.99
2018-12-17T10:25:22.271Z,99.99
2018-12-17T10:26:22.268Z,99.99
2018-12-17T10:27:22.268Z,99.99
2018-12-17T10:28:22.420Z,99.99
2018-12-17T10:29:22.270Z,99.99
2018-12-17T10:30:22.271Z,99.99
2018-12-17T10:31:22.277Z,99.99
2018-12-17T10:32:22.271Z,99.99
2018-12-17T10:33:22.300Z,99.99
2018-12-17T10:34:22.298Z,99.99
2018-12-17T10:35:22.270Z,99.99
2018-12-17T10:36:22.302Z,99.99
2018-12-17T10:37:22.304Z,99.99
2018-12-17T10:38:45.844Z,99.99
2018-12-17T10:39:22.265Z,99.99
2018-12-17T10:40:22.297Z,99.99
2018-12-17T10:41:22.300Z,99.99
2018-12-17T10:42:22.269Z,99.99
2018-12-17T10:43:22.288Z,99.99
2018-12-17T10:44:22.286Z,99.99
2018-12-17T10:45:22.261Z,99.99
2018-12-17T10:46:22.282Z,99.99
2018-12-17T10:47:22.275Z,99.99
2018-12-17T10:48:22.290Z,99.99
2018-12-17T10:49:22.257Z,99.99
2018-12-17T10:50:22.254Z,99.99
2018-12-17T10:51:22.257Z,99.99
2018-12-17T10:52:22.269Z,99.99
2018-12-17T10:53:22.280Z,99.99
2018-12-17T10:54:22.257Z,99.99
2018-12-17T10:55:22.252Z,99.99
2018-12-17T10:56:22.249Z,99.99
2018-12-17T10:57:22.248Z,99.99
2018-12-17T10:58:22.266Z,99.99
2018-12-17T10:59:22.244Z,99.99
2018-12-17T11:00:22.231Z,99.99
2018-12-17T11:01:22.245Z,99.99
2018-12-17T11:02:22.251Z,99.99
2018-12-17T11:03:22.307Z,99.99
2018-12-17T11:04:22.241Z,99.99
2018-12-17T11:05:22.238Z,99.99
2018-12-17T11:06:22.228Z,99.99
2018-12-17T11:07:22.231Z,99.99
2018-12-17T11:08:22.262Z,99.99
2018-12-17T11:09:22.222Z,99.99
2018-12-17T11:10:22.227Z,99.99
2018-12-17T11:11:22.228Z,99.99
2018-12-17T11:12:22.221Z,99.99
2018-12-17T11:13:22.252Z,99.99
2018-12-17T11:14:22.227Z,99.99
2018-12-17T11:15:22.216Z,99.99
2018-12-17T11:16:22.219Z,99.99
2018-12-17T11:17:22.244Z,99.99
2018-12-17T11:18:22.216Z,99.99
2018-12-17T11:19:22.255Z,99.99
2018-12-17T11:20:22.213Z,99.99
2018-12-17T11:21:22.211Z,99.99
2018-12-17T11:22:22.210Z,99.99
2018-12-17T11:23:22.208Z,99.99
2018-12-17T11:24:22.239Z,99.99
2018-12-17T11:25:22.213Z,99.99
2018-12-17T11:26:22.210Z,99.99
2018-12-17T11:27:22.206Z,99.99
2018-12-17T11:28:22.210Z,99.99
2018-12-17T11:29:22.242Z,99.99
2018-12-17T11:30:22.982Z,99.99
2018-12-17T11:31:22.210Z,99.99
2018-12-17T11:32:22.213Z,99.99
2018-12-17T11:33:22.212Z,99.99
2018-12-17T11:34:22.242Z,99.99
2018-12-17T11:35:22.215Z,99.99
2018-12-17T11:36:22.214Z,99.99
2018-12-17T11:37:22.215Z,99.99
2018-12-17T11:38:22.205Z,99.99
2018-12-17T11:39:22.242Z,99.99
2018-12-17T11:40:22.214Z,99.99
2018-12-17T11:41:22.219Z,99.99
2018-12-17T11:42:22.210Z,99.99
2018-12-17T11:43:22.240Z,99.99
2018-12-17T11:44:22.210Z,99.99
2018-12-17T11:45:22.205Z,99.99
2018-12-17T11:46:22.208Z,99.99
2018-12-17T11:47:22.206Z,99.99
2018-12-17T11:48:22.229Z,99.99
2018-12-17T11:49:22.203Z,99.99
2018-12-17T11:50:22.203Z,99.99
2018-12-17T11:51:22.197Z,99.99
2018-12-17T11:52:22.198Z,99.99
2018-12-17T11:53:22.217Z,99.99
2018-12-17T11:54:22.193Z,99.99
2018-12-17T11:55:22.192Z,99.99
2018-12-17T11:56:22.184Z,99.99
2018-12-17T11:57:22.188Z,99.99
2018-12-17T11:58:22.220Z,99.99
2018-12-17T11:59:22.184Z,99.99
2018-12-17T12:00:22.184Z,99.99
2018-12-17T12:01:22.180Z,99.99
2018-12-17T12:02:22.173Z,99.99
2018-12-17T12:03:22.204Z,99.99
2018-12-17T12:04:22.175Z,99.99
2018-12-17T12:05:22.168Z,99.99
2018-12-17T12:06:22.169Z,99.99
2018-12-17T12:07:22.165Z,99.99
2018-12-17T12:08:22.192Z,99.99
2018-12-17T12:09:22.168Z,99.99
2018-12-17T12:10:22.156Z,99.99
2018-12-17T12:11:22.152Z,99.99
2018-12-17T12:12:22.181Z,99.99
2018-12-17T12:13:22.151Z,99.99
2018-12-17T12:14:22.176Z,99.99
2018-12-17T12:15:22.146Z,99.99
2018-12-17T12:16:22.183Z,99.99
2018-12-17T12:17:22.139Z,99.99
2018-12-17T12:18:22.165Z,99.99
2018-12-17T12:19:22.132Z,99.99
2018-12-17T12:20:22.131Z,99.99
2018-12-17T12:21:22.179Z,99.99
2018-12-17T12:22:22.128Z,99.99
2018-12-17T12:23:22.153Z,99.99
2018-12-17T12:24:22.120Z,99.99
2018-12-17T12:25:22.120Z,99.99
2018-12-17T12:26:22.111Z,99.99
2018-12-17T12:27:22.111Z,99.99
2018-12-17T12:28:22.136Z,99.99
2018-12-17T12:29:22.110Z,99.99
2018-12-17T12:30:22.103Z,99.99
2018-12-17T12:31:22.099Z,99.99
2018-12-17T12:32:22.098Z,99.99
2018-12-17T12:33:22.118Z,99.99
2018-12-17T12:34:22.093Z,99.99
2018-12-17T12:35:22.086Z,99.99
2018-12-17T12:36:22.086Z,99.99
2018-12-17T12:37:22.084Z,99.99
2018-12-17T12:38:22.103Z,99.99
2018-12-17T12:39:22.079Z,99.99
2018-12-17T12:40:22.075Z,99.99
2018-12-17T12:41:22.069Z,99.99
2018-12-17T12:42:22.067Z,99.99
2018-12-17T12:43:22.093Z,99.99
2018-12-17T12:44:22.063Z,99.99
2018-12-17T12:45:22.058Z,99.99
2018-12-17T12:46:22.055Z,99.99
2018-12-17T12:47:22.050Z,99.99
2018-12-17T12:48:22.076Z,99.99
2018-12-17T12:49:22.069Z,99.99
2018-12-17T12:50:22.041Z,99.99
2018-12-17T12:51:22.038Z,99.99
2018-12-17T12:52:22.030Z,99.99